Time;durP1;ratioP1;P1;durP2;ratioP2;P2;SDS_P1;SDS_P2;PMS_P1;PMS_P2;Temp;Humidity;BMP_temperature;BMP_pressure;BME280_temperature;BME280_humidity;BME280_pressure;Samples;Min_cycle;Max_cycle;Signal;HPM_P1;HPM_P2
2023/05/16 00:01:51;;;;;;;;;;;;;;;;;;2222849;58;2858;-23
2023/05/16 00:04:22;;;;;;;;;;;;;;;;;;2220937;66;2999;-23
2023/05/16 00:06:52;;;;;;;;;;;;;;;;;;2219865;66;2501;-22
2023/05/16 00:09:23;;;;;;;;;;;;;;;;;;2220084;66;2157;-23
2023/05/16 00:11:53;;;;;;;;;;;;;;;;;;2220242;66;2321;-23
2023/05/16 00:14:25;;;;;;;;;;;;;;;;;;2204090;66;1923;-23
2023/05/16 00:16:57;;;;;;;;;;;;;;;;;;2220517;59;1928;-23
2023/05/16 00:19:28;;;;;;;;;;;;;;;;;;2204063;59;2079;-23
2023/05/16 00:21:59;;;;;;;;;;;;;;;;;;2204803;66;2821;-23
2023/05/16 00:24:29;;;;;;;;;;;;;;;;;;2203469;66;2982;-23
2023/05/16 00:26:59;;;;;;;;;;;;;;;;;;2219451;66;3046;-22
2023/05/16 00:29:30;;;;;;;;;;;;;;;;;;2219805;66;2458;-23
2023/05/16 00:32:01;;;;;;;;;;;;;;;;;;2219813;66;2109;-23
2023/05/16 00:34:31;;;;;;;;;;;;;;;;;;2204041;66;2755;-22
2023/05/16 00:37:02;;;;;;;;;;;;;;;;;;2220009;66;3037;-23
2023/05/16 00:39:32;;;;;;;;;;;;;;;;;;2203426;59;2140;-23
2023/05/16 00:42:02;;;;;;;;;;;;;;;;;;2219749;66;2749;-22
2023/05/16 00:44:32;;;;;;;;;;;;;;;;;;2219555;66;2922;-23
2023/05/16 00:47:03;;;;;;;;;;;;;;;;;;2219369;66;2399;-23
2023/05/16 00:49:33;;;;;;;;;;;;;;;;;;2218424;66;2068;-22
2023/05/16 00:52:03;;;;;;;;;;;;;;;;;;2219355;58;2700;-22
2023/05/16 00:54:34;;;;;;;;;;;;;;;;;;2220632;58;2663;-22
2023/05/16 00:57:05;;;;;;;;;;;;;;;;;;2219508;66;2168;-23
2023/05/16 00:59:35;;;;;;;;;;;;;;;;;;2203755;59;2233;-22
2023/05/16 01:02:06;;;;;;;;;;;;;;;;;;2220476;58;2901;-22
2023/05/16 01:04:36;;;;;;;;;;;;;;;;;;2219917;66;2072;-23
2023/05/16 01:07:06;;;;;;;;;;;;;;;;;;2219897;66;3011;-22
2023/05/16 01:09:37;;;;;;;;;;;;;;;;;;2220839;59;2998;-22
2023/05/16 01:12:26;;;;;;;;;;;;;;;;;;2219970;66;2545;-23
2023/05/16 01:15:03;;;;;;;;;;;;;;;;;;2219652;66;2039;-22
2023/05/16 01:17:34;;;;;;;;;;;;;;;;;;2204300;59;2072;-23
2023/05/16 01:20:22;;;;;;;;;;;;;;;;;;2220002;66;3011;-22
2023/05/16 01:22:59;;;;;;;;;;;;;;;;;;2219661;66;2064;-22
2023/05/16 01:25:44;;;;;;;;;;;;;;;;;;2203554;66;2102;-23
2023/05/16 01:28:15;;;;;;;;;;;;;;;;;;2219887;66;2197;-23
2023/05/16 01:30:46;;;;;;;;;;;;;;;;;;2218968;66;2866;-22
2023/05/16 01:33:16;;;;;;;;;;;;;;;;;;2218941;66;3255;-22
2023/05/16 01:35:53;;;;;;;;;;;;;;;;;;2218933;66;1968;-22
2023/05/16 01:38:23;;;;;;;;;;;;;;;;;;2218549;58;2077;-22
2023/05/16 01:41:03;;;;;;;;;;;;;;;;;;2218733;58;2970;-22
2023/05/16 01:43:36;;;;;;;;;;;;;;;;;;2219617;66;3975;-22
2023/05/16 01:46:11;;;;;;;;;;;;;;;;;;2219121;66;2943;-22
2023/05/16 01:48:52;;;;;;;;;;;;;;;;;;2219322;66;2468;-22
2023/05/16 01:51:23;;;;;;;;;;;;;;;;;;2218902;58;2328;-22
2023/05/16 01:53:57;;;;;;;;;;;;;;;;;;2218574;58;2757;-23
2023/05/16 01:56:28;;;;;;;;;;;;;;;;;;2203444;66;2866;-22
2023/05/16 01:58:59;;;;;;;;;;;;;;;;;;2219909;59;2925;-23
2023/05/16 02:01:30;;;;;;;;;;;;;;;;;;2219404;58;2615;-22
2023/05/16 02:04:00;;;;;;;;;;;;;;;;;;2219855;58;2996;-23
2023/05/16 02:06:30;;;;;;;;;;;;;;;;;;2220548;66;2974;-23
2023/05/16 02:09:00;;;;;;;;;;;;;;;;;;2219903;66;2478;-22
2023/05/16 02:11:31;;;;;;;;;;;;;;;;;;2203928;66;3234;-22
2023/05/16 02:14:01;;;;;;;;;;;;;;;;;;2219671;66;2738;-22
2023/05/16 02:16:32;;;;;;;;;;;;;;;;;;2204324;66;2110;-22
2023/05/16 02:19:03;;;;;;;;;;;;;;;;;;2219640;58;2080;-22
2023/05/16 02:21:33;;;;;;;;;;;;;;;;;;2218758;66;3071;-22
2023/05/16 02:24:03;;;;;;;;;;;;;;;;;;2220021;66;3255;-23
2023/05/16 02:26:34;;;;;;;;;;;;;;;;;;2203725;59;2430;-23
2023/05/16 02:29:04;;;;;;;;;;;;;;;;;;2219650;66;2097;-23
2023/05/16 02:31:35;;;;;;;;;;;;;;;;;;2203042;59;2941;-23
2023/05/16 02:34:06;;;;;;;;;;;;;;;;;;2219654;66;2076;-23
2023/05/16 02:36:36;;;;;;;;;;;;;;;;;;2204000;66;2639;-23
2023/05/16 02:39:08;;;;;;;;;;;;;;;;;;2202854;59;2764;-23
2023/05/16 02:41:39;;;;;;;;;;;;;;;;;;2219605;66;2038;-23
2023/05/16 02:44:09;;;;;;;;;;;;;;;;;;2202950;66;3139;-23
2023/05/16 02:46:40;;;;;;;;;;;;;;;;;;2219848;58;2035;-23
2023/05/16 02:49:10;;;;;;;;;;;;;;;;;;2203298;66;1874;-23
2023/05/16 02:51:40;;;;;;;;;;;;;;;;;;2220084;58;2285;-23
2023/05/16 02:54:10;;;;;;;;;;;;;;;;;;2219590;58;2765;-23
2023/05/16 02:56:41;;;;;;;;;;;;;;;;;;2220044;66;2298;-23
2023/05/16 02:59:12;;;;;;;;;;;;;;;;;;2203457;59;2631;-23
2023/05/16 03:01:42;;;;;;;;;;;;;;;;;;2219818;58;2727;-23
2023/05/16 03:04:12;;;;;;;;;;;;;;;;;;2203374;66;2033;-23
2023/05/16 03:06:43;;;;;;;;;;;;;;;;;;2220772;66;2537;-23
2023/05/16 03:09:13;;;;;;;;;;;;;;;;;;2203501;59;2785;-23
2023/05/16 03:11:44;;;;;;;;;;;;;;;;;;2204404;66;3083;-23
2023/05/16 03:14:14;;;;;;;;;;;;;;;;;;2220994;66;2164;-23
2023/05/16 03:16:44;;;;;;;;;;;;;;;;;;2220518;66;2645;-23
2023/05/16 03:19:15;;;;;;;;;;;;;;;;;;2219970;58;3028;-23
2023/05/16 03:21:45;;;;;;;;;;;;;;;;;;2221215;66;2241;-23
2023/05/16 03:24:16;;;;;;;;;;;;;;;;;;2221626;66;2085;-23
2023/05/16 03:26:46;;;;;;;;;;;;;;;;;;2220150;66;3230;-23
2023/05/16 03:29:16;;;;;;;;;;;;;;;;;;2219607;66;2344;-23
2023/05/16 03:31:46;;;;;;;;;;;;;;;;;;2220608;66;2275;-23
2023/05/16 03:34:16;;;;;;;;;;;;;;;;;;2220796;66;2205;-23
2023/05/16 03:36:48;;;;;;;;;;;;;;;;;;2203801;66;2006;-23
2023/05/16 03:39:18;;;;;;;;;;;;;;;;;;2219839;58;2184;-23
2023/05/16 03:41:48;;;;;;;;;;;;;;;;;;2220972;66;1914;-23
2023/05/16 03:44:18;;;;;;;;;;;;;;;;;;2219836;66;3045;-23
2023/05/16 03:46:50;;;;;;;;;;;;;;;;;;2220582;58;3207;-23
2023/05/16 03:49:22;;;;;;;;;;;;;;;;;;2220251;66;2916;-23
2023/05/16 03:51:52;;;;;;;;;;;;;;;;;;2220232;58;3155;-23
2023/05/16 03:54:22;;;;;;;;;;;;;;;;;;2204742;66;2760;-23
2023/05/16 03:56:53;;;;;;;;;;;;;;;;;;2220156;66;2024;-23
2023/05/16 03:59:23;;;;;;;;;;;;;;;;;;2220391;58;2721;-23
2023/05/16 04:01:53;;;;;;;;;;;;;;;;;;2219787;58;1704;-23
2023/05/16 04:04:23;;;;;;;;;;;;;;;;;;2220724;66;1996;-23
2023/05/16 04:06:54;;;;;;;;;;;;;;;;;;2219960;66;2064;-23
2023/05/16 04:09:24;;;;;;;;;;;;;;;;;;2220310;66;2099;-23
2023/05/16 04:11:55;;;;;;;;;;;;;;;;;;2220242;66;3305;-23
2023/05/16 04:14:26;;;;;;;;;;;;;;;;;;2220107;66;2277;-23
2023/05/16 04:16:56;;;;;;;;;;;;;;;;;;2220545;66;1665;-23
2023/05/16 04:19:26;;;;;;;;;;;;;;;;;;2204229;59;2490;-23
2023/05/16 04:21:56;;;;;;;;;;;;;;;;;;2204273;66;2706;-23
2023/05/16 04:24:27;;;;;;;;;;;;;;;;;;2220408;66;2146;-23
2023/05/16 04:26:58;;;;;;;;;;;;;;;;;;2203920;66;2124;-23
2023/05/16 04:29:28;;;;;;;;;;;;;;;;;;2219609;66;2454;-23
2023/05/16 04:31:58;;;;;;;;;;;;;;;;;;2220441;66;1899;-23
2023/05/16 04:34:29;;;;;;;;;;;;;;;;;;2220052;58;2792;-23
2023/05/16 04:36:59;;;;;;;;;;;;;;;;;;2220650;66;2493;-23
2023/05/16 04:39:30;;;;;;;;;;;;;;;;;;2204951;59;2864;-23
2023/05/16 04:42:00;;;;;;;;;;;;;;;;;;2220828;66;2483;-23
2023/05/16 04:44:30;;;;;;;;;;;;;;;;;;2219740;66;2041;-23
2023/05/16 04:47:01;;;;;;;;;;;;;;;;;;2220281;58;2117;-23
2023/05/16 04:49:34;;;;;;;;;;;;;;;;;;2219678;66;2020;-23
2023/05/16 04:52:05;;;;;;;;;;;;;;;;;;2219465;58;2209;-23
2023/05/16 04:54:37;;;;;;;;;;;;;;;;;;2219213;58;2270;-23
2023/05/16 04:57:07;;;;;;;;;;;;;;;;;;2203115;59;2272;-23
2023/05/16 04:59:37;;;;;;;;;;;;;;;;;;2219590;58;2300;-23
2023/05/16 05:02:07;;;;;;;;;;;;;;;;;;2219199;58;2637;-23
2023/05/16 05:04:37;;;;;;;;;;;;;;;;;;2220420;66;2750;-22
2023/05/16 05:07:08;;;;;;;;;;;;;;;;;;2219477;66;1711;-22
2023/05/16 05:09:38;;;;;;;;;;;;;;;;;;2203844;66;3138;-23
2023/05/16 05:12:08;;;;;;;;;;;;;;;;;;2205420;66;3030;-22
2023/05/16 05:14:39;;;;;;;;;;;;;;;;;;2221868;58;2533;-22
2023/05/16 05:17:09;;;;;;;;;;;;;;;;;;2204930;58;2202;-22
2023/05/16 05:19:39;;;;;;;;;;;;;;;;;;2221309;58;3898;-22
2023/05/16 05:22:09;;;;;;;;;;;;;;;;;;2219966;58;2160;-22
2023/05/16 05:24:40;;;;;;;;;;;;;;;;;;2203937;59;3021;-22
2023/05/16 05:27:10;;;;;;;;;;;;;;;;;;2220084;59;1928;-23
2023/05/16 05:29:40;;;;;;;;;;;;;;;;;;2219976;59;2568;-23
2023/05/16 05:32:10;;;;;;;;;;;;;;;;;;2219294;66;2603;-23
2023/05/16 05:34:41;;;;;;;;;;;;;;;;;;2220200;59;2621;-23
2023/05/16 05:37:11;;;;;;;;;;;;;;;;;;2221507;66;1693;-23
2023/05/16 05:39:41;;;;;;;;;;;;;;;;;;2223935;58;3683;-23
2023/05/16 05:42:11;;;;;;;;;;;;;;;;;;2221948;66;2770;-23
2023/05/16 05:44:41;;;;;;;;;;;;;;;;;;2202153;66;2566;-23
2023/05/16 05:47:12;;;;;;;;;;;;;;;;;;2204421;59;2167;-23
2023/05/16 05:49:42;;;;;;;;;;;;;;;;;;2203572;59;1918;-23
2023/05/16 05:52:12;;;;;;;;;;;;;;;;;;2219316;58;2327;-23
2023/05/16 05:54:43;;;;;;;;;;;;;;;;;;2220893;58;2399;-23
2023/05/16 05:57:13;;;;;;;;;;;;;;;;;;2218945;58;3268;-23
2023/05/16 05:59:43;;;;;;;;;;;;;;;;;;2219848;58;2487;-23
2023/05/16 06:02:13;;;;;;;;;;;;;;;;;;2218705;58;2333;-23
2023/05/16 06:04:44;;;;;;;;;;;;;;;;;;2220027;66;1815;-23
2023/05/16 06:07:14;;;;;;;;;;;;;;;;;;2219287;59;1872;-23
2023/05/16 06:09:45;;;;;;;;;;;;;;;;;;2220063;66;2681;-23
2023/05/16 06:12:15;;;;;;;;;;;;;;;;;;2218826;66;2540;-23
2023/05/16 06:14:46;;;;;;;;;;;;;;;;;;2220505;66;2741;-23
2023/05/16 06:17:16;;;;;;;;;;;;;;;;;;2203607;58;3012;-23
2023/05/16 06:19:46;;;;;;;;;;;;;;;;;;2201437;66;1939;-23
2023/05/16 06:22:16;;;;;;;;;;;;;;;;;;2203078;66;1957;-23
2023/05/16 06:24:46;;;;;;;;;;;;;;;;;;2220247;66;1426;-23
2023/05/16 06:27:17;;;;;;;;;;;;;;;;;;2219668;66;2622;-23
2023/05/16 06:29:47;;;;;;;;;;;;;;;;;;2220142;63;2528;-23
2023/05/16 06:32:17;;;;;;;;;;;;;;;;;;2219379;66;2921;-23
2023/05/16 06:34:47;;;;;;;;;;;;;;;;;;2219037;59;3135;-23
2023/05/16 06:37:18;;;;;;;;;;;;;;;;;;2217812;58;2296;-23
2023/05/16 06:39:48;;;;;;;;;;;;;;;;;;2203873;59;2221;-23
2023/05/16 06:42:19;;;;;;;;;;;;;;;;;;2220307;58;2462;-23
2023/05/16 06:44:50;;;;;;;;;;;;;;;;;;2219956;66;3070;-23
2023/05/16 06:47:20;;;;;;;;;;;;;;;;;;2219294;58;2146;-23
2023/05/16 06:49:50;;;;;;;;;;;;;;;;;;2220939;58;2632;-23
2023/05/16 06:52:21;;;;;;;;;;;;;;;;;;2219265;58;2551;-23
2023/05/16 06:54:51;;;;;;;;;;;;;;;;;;2219807;58;2130;-23
2023/05/16 06:57:21;;;;;;;;;;;;;;;;;;2202760;66;3119;-23
2023/05/16 06:59:52;;;;;;;;;;;;;;;;;;2219951;66;2269;-23
2023/05/16 07:02:22;;;;;;;;;;;;;;;;;;2219678;58;2920;-23
2023/05/16 07:04:52;;;;;;;;;;;;;;;;;;2219434;61;2267;-23
2023/05/16 07:07:22;;;;;;;;;;;;;;;;;;2203169;66;3043;-23
2023/05/16 07:09:53;;;;;;;;;;;;;;;;;;2218662;58;3128;-24
2023/05/16 07:12:23;;;;;;;;;;;;;;;;;;2218153;59;2410;-23
2023/05/16 07:14:53;;;;;;;;;;;;;;;;;;2218253;58;3308;-23
2023/05/16 07:17:23;;;;;;;;;;;;;;;;;;2218171;58;3231;-23
2023/05/16 07:19:53;;;;;;;;;;;;;;;;;;2203285;59;2423;-23
2023/05/16 07:22:24;;;;;;;;;;;;;;;;;;2218214;66;2824;-23
2023/05/16 07:24:56;;;;;;;;;;;;;;;;;;2219417;61;1942;-23
2023/05/16 07:27:27;;;;;;;;;;;;;;;;;;2219018;66;2593;-23
2023/05/16 07:29:57;;;;;;;;;;;;;;;;;;2204795;60;1946;-22
2023/05/16 07:32:27;;;;;;;;;;;;;;;;;;2218548;66;1752;-23
2023/05/16 07:34:57;;;;;;;;;;;;;;;;;;2219804;66;2936;-22
2023/05/16 07:37:27;;;;;;;;;;;;;;;;;;2219086;66;2205;-22
2023/05/16 07:39:58;;;;;;;;;;;;;;;;;;2219244;58;2980;-22
2023/05/16 07:42:28;;;;;;;;;;;;;;;;;;2219633;66;1932;-22
2023/05/16 07:44:58;;;;;;;;;;;;;;;;;;2219448;66;3053;-22
2023/05/16 07:47:28;;;;;;;;;;;;;;;;;;2218475;66;2874;-22
2023/05/16 07:49:58;;;;;;;;;;;;;;;;;;2220012;58;1777;-22
2023/05/16 07:52:29;;;;;;;;;;;;;;;;;;2218594;58;3081;-22
2023/05/16 07:54:59;;;;;;;;;;;;;;;;;;2219695;66;2651;-22
2023/05/16 07:57:29;;;;;;;;;;;;;;;;;;2219874;58;2027;-22
2023/05/16 08:00:00;;;;;;;;;;;;;;;;;;2221021;59;2076;-22
2023/05/16 08:02:30;;;;;;;;;;;;;;;;;;2204318;59;2626;-21
2023/05/16 08:05:00;;;;;;;;;;;;;;;;;;2219995;66;2597;-22
2023/05/16 08:07:31;;;;;;;;;;;;;;;;;;2220784;59;3049;-22
2023/05/16 08:10:02;;;;;;;;;;;;;;;;;;2220183;66;2854;-22
2023/05/16 08:12:32;;;;;;;;;;;;;;;;;;2219763;62;2602;-22
2023/05/16 08:15:06;;;;;;;;;;;;;;;;;;2220540;66;2569;-22
2023/05/16 08:17:39;;;;;;;;;;;;;;;;;;2204090;59;2627;-22
2023/05/16 08:20:10;;;;;;;;;;;;;;;;;;2203897;59;1938;-22
2023/05/16 08:22:40;;;;;;;;;;;;;;;;;;2204670;66;3494;-22
2023/05/16 08:25:10;;;;;;;;;;;;;;;;;;2220046;66;2597;-22
2023/05/16 08:27:40;;;;;;;;;;;;;;;;;;2219957;59;1917;-22
2023/05/16 08:30:11;;;;;;;;;;;;;;;;;;2220294;66;2853;-20
2023/05/16 08:32:42;;;;;;;;;;;;;;;;;;2220058;66;3593;-21
2023/05/16 08:35:12;;;;;;;;;;;;;;;;;;2219467;66;2684;-21
2023/05/16 08:37:42;;;;;;;;;;;;;;;;;;2220512;58;2899;-21
2023/05/16 08:40:14;;;;;;;;;;;;;;;;;;2201231;66;2812;-21
2023/05/16 08:42:44;;;;;;;;;;;;;;;;;;2219181;66;2715;-21
2023/05/16 08:45:15;;;;;;;;;;;;;;;;;;2220702;66;3217;-21
2023/05/16 08:47:48;;;;;;;;;;;;;;;;;;2220309;58;2092;-21
2023/05/16 08:50:18;;;;;;;;;;;;;;;;;;2220254;58;2801;-21
2023/05/16 08:52:50;;;;;;;;;;;;;;;;;;2219854;58;2749;-21
2023/05/16 08:55:21;;;;;;;;;;;;;;;;;;2219678;66;2023;-21
2023/05/16 08:57:54;;;;;;;;;;;;;;;;;;2220821;58;2134;-21
2023/05/16 09:00:25;;;;;;;;;;;;;;;;;;2220097;58;1968;-21
2023/05/16 09:02:56;;;;;;;;;;;;;;;;;;2203971;59;1374;-21
2023/05/16 09:05:29;;;;;;;;;;;;;;;;;;2220640;66;1316;-21
2023/05/16 09:07:59;;;;;;;;;;;;;;;;;;2220750;66;1651;-21
2023/05/16 09:10:29;;;;;;;;;;;;;;;;;;2220206;66;1267;-21
2023/05/16 09:13:00;;;;;;;;;;;;;;;;;;2220053;66;1093;-22
2023/05/16 09:15:33;;;;;;;;;;;;;;;;;;2220690;66;1280;-21
2023/05/16 09:18:04;;;;;;;;;;;;;;;;;;2219896;58;1826;-21
2023/05/16 09:20:34;;;;;;;;;;;;;;;;;;2219316;66;1935;-21
2023/05/16 09:23:04;;;;;;;;;;;;;;;;;;2220460;66;1212;-21
2023/05/16 09:25:35;;;;;;;;;;;;;;;;;;2220053;66;1303;-21
2023/05/16 09:28:09;;;;;;;;;;;;;;;;;;2219542;66;1348;-21
2023/05/16 09:30:41;;;;;;;;;;;;;;;;;;2204070;66;1337;-21
2023/05/16 09:33:11;;;;;;;;;;;;;;;;;;2220460;59;2041;-21
2023/05/16 09:35:41;;;;;;;;;;;;;;;;;;2220309;66;1396;-21
2023/05/16 09:38:15;;;;;;;;;;;;;;;;;;2220194;66;1850;-21
2023/05/16 09:40:46;;;;;;;;;;;;;;;;;;2220086;66;1992;-21
2023/05/16 09:43:16;;;;;;;;;;;;;;;;;;2203212;66;1798;-21
2023/05/16 09:45:47;;;;;;;;;;;;;;;;;;2203719;66;1622;-21
2023/05/16 09:48:19;;;;;;;;;;;;;;;;;;2218939;59;2132;-21
2023/05/16 09:50:53;;;;;;;;;;;;;;;;;;2219243;58;1305;-21
2023/05/16 09:53:27;;;;;;;;;;;;;;;;;;2219815;66;1383;-21
2023/05/16 09:56:09;;;;;;;;;;;;;;;;;;2204199;66;1509;-21
2023/05/16 09:58:43;;;;;;;;;;;;;;;;;;2203664;59;2140;-21
2023/05/16 10:01:13;;;;;;;;;;;;;;;;;;2219705;58;1886;-21
2023/05/16 10:03:44;;;;;;;;;;;;;;;;;;2219969;66;1498;-21
2023/05/16 10:06:15;;;;;;;;;;;;;;;;;;2218768;59;2098;-21
2023/05/16 10:08:46;;;;;;;;;;;;;;;;;;2219884;66;1602;-21
2023/05/16 10:11:17;;;;;;;;;;;;;;;;;;2220376;66;2270;-21
2023/05/16 10:13:52;;;;;;;;;;;;;;;;;;2220463;66;1278;-21
2023/05/16 10:16:24;;;;;;;;;;;;;;;;;;2219698;66;1730;-21
2023/05/16 10:18:55;;;;;;;;;;;;;;;;;;2219780;58;1985;-22
2023/05/16 10:21:27;;;;;;;;;;;;;;;;;;2219722;59;1824;-21
2023/05/16 10:23:58;;;;;;;;;;;;;;;;;;2220660;66;1821;-21
2023/05/16 10:26:28;;;;;;;;;;;;;;;;;;2203505;66;2272;-21
2023/05/16 10:28:59;;;;;;;;;;;;;;;;;;2220369;66;1869;-21
2023/05/16 10:31:30;;;;;;;;;;;;;;;;;;2220051;66;1852;-21
2023/05/16 10:34:00;;;;;;;;;;;;;;;;;;2219303;66;1434;-21
2023/05/16 10:36:31;;;;;;;;;;;;;;;;;;2218708;58;1438;-21
2023/05/16 10:39:02;;;;;;;;;;;;;;;;;;2204264;60;1953;-21
2023/05/16 10:41:33;;;;;;;;;;;;;;;;;;2203409;66;1814;-21
2023/05/16 10:44:11;;;;;;;;;;;;;;;;;;2219980;66;1714;-21
2023/05/16 10:46:41;;;;;;;;;;;;;;;;;;2220009;59;2075;-21
2023/05/16 10:49:19;;;;;;;;;;;;;;;;;;2219296;58;1382;-22
2023/05/16 10:52:02;;;;;;;;;;;;;;;;;;2220138;58;1488;-21
2023/05/16 10:54:33;;;;;;;;;;;;;;;;;;2220101;58;1903;-21
2023/05/16 10:57:05;;;;;;;;;;;;;;;;;;2220121;66;1302;-21
2023/05/16 10:59:41;;;;;;;;;;;;;;;;;;2219495;58;2028;-21
2023/05/16 11:02:23;;;;;;;;;;;;;;;;;;2220091;58;1705;-21
2023/05/16 11:04:55;;;;;;;;;;;;;;;;;;2219097;66;1441;-21
2023/05/16 11:10:22;;;;;;;;;;;;;;;;;;2201836;59;2273;-24
2023/05/16 11:12:54;;;;;;;;;;;;;;;;;;2203339;66;1852;-25
2023/05/16 11:15:26;;;;;;;;;;;;;;;;;;2202987;59;2514;-25
2023/05/16 11:18:07;;;;;;;;;;;;;;;;;;2206962;66;2165;-23
2023/05/16 11:20:38;;;;;;;;;;;;;;;;;;2203292;66;2212;-23
2023/05/16 11:23:15;;;;;;;;;;;;;;;;;;2218079;66;1890;-23
2023/05/16 11:25:47;;;;;;;;;;;;;;;;;;2218845;66;2784;-23
2023/05/16 11:28:18;;;;;;;;;;;;;;;;;;2216634;66;2995;-23
2023/05/16 11:30:50;;;;;;;;;;;;;;;;;;2203334;59;4120;-23
2023/05/16 11:33:21;;;;;;;;;;;;;;;;;;2219618;58;3080;-23
2023/05/16 11:36:07;;;;;;;;;;;;;;;;;;2201774;59;3022;-23
2023/05/16 11:38:42;;;;;;;;;;;;;;;;;;2204351;59;2183;-23
2023/05/16 11:41:14;;;;;;;;;;;;;;;;;;2219945;66;1811;-23
2023/05/16 11:43:45;;;;;;;;;;;;;;;;;;2218720;66;2653;-23
2023/05/16 11:46:15;;;;;;;;;;;;;;;;;;2220382;66;2915;-23
2023/05/16 11:48:47;;;;;;;;;;;;;;;;;;2220277;58;3303;-37
2023/05/16 11:51:19;;;;;;;;;;;;;;;;;;2220278;58;2662;-26
2023/05/16 11:53:49;;;;;;;;;;;;;;;;;;2220605;58;2678;-25
2023/05/16 11:56:21;;;;;;;;;;;;;;;;;;2217531;66;3018;-25
2023/05/16 11:58:51;;;;;;;;;;;;;;;;;;2219307;58;2837;-25
2023/05/16 12:01:22;;;;;;;;;;;;;;;;;;2219821;58;2918;-25
2023/05/16 12:03:58;;;;;;;;;;;;;;;;;;2219439;59;3185;-26
2023/05/16 12:06:30;;;;;;;;;;;;;;;;;;2217990;66;2944;-26
2023/05/16 12:09:06;;;;;;;;;;;;;;;;;;2218831;58;2734;-26
2023/05/16 12:11:37;;;;;;;;;;;;;;;;;;2218387;66;2745;-26
2023/05/16 12:14:09;;;;;;;;;;;;;;;;;;2203918;66;3148;-25
2023/05/16 12:16:42;;;;;;;;;;;;;;;;;;2218809;66;2750;-25
2023/05/16 12:19:13;;;;;;;;;;;;;;;;;;2216246;66;2206;-25
2023/05/16 12:21:43;;;;;;;;;;;;;;;;;;2218948;66;3233;-25
2023/05/16 12:24:16;;;;;;;;;;;;;;;;;;2219042;66;3311;-25
2023/05/16 12:26:46;;;;;;;;;;;;;;;;;;2219718;66;3191;-25
2023/05/16 12:29:20;;;;;;;;;;;;;;;;;;2218864;66;2436;-25
2023/05/16 12:31:51;;;;;;;;;;;;;;;;;;2218070;66;2543;-25
2023/05/16 12:34:22;;;;;;;;;;;;;;;;;;2217890;66;3072;-26
2023/05/16 12:36:53;;;;;;;;;;;;;;;;;;2219768;59;2576;-25
2023/05/16 12:39:23;;;;;;;;;;;;;;;;;;2217200;58;3051;-26
2023/05/16 12:41:53;;;;;;;;;;;;;;;;;;2203358;66;2963;-26
2023/05/16 12:44:28;;;;;;;;;;;;;;;;;;2204672;66;2817;-25
2023/05/16 12:46:58;;;;;;;;;;;;;;;;;;2219347;58;2487;-25
2023/05/16 12:49:32;;;;;;;;;;;;;;;;;;2220342;58;2902;-25
2023/05/16 12:52:04;;;;;;;;;;;;;;;;;;2220370;58;2980;-25
2023/05/16 12:54:34;;;;;;;;;;;;;;;;;;2218211;58;2812;-26
2023/05/16 12:57:05;;;;;;;;;;;;;;;;;;2204190;66;2091;-25
2023/05/16 12:59:39;;;;;;;;;;;;;;;;;;2203782;59;2822;-25
2023/05/16 13:02:09;;;;;;;;;;;;;;;;;;2220729;58;2086;-25
2023/05/16 13:04:40;;;;;;;;;;;;;;;;;;2220495;66;2977;-26
2023/05/16 13:07:11;;;;;;;;;;;;;;;;;;2203129;66;1772;-26
2023/05/16 13:09:41;;;;;;;;;;;;;;;;;;2220247;59;2733;-26
2023/05/16 13:12:12;;;;;;;;;;;;;;;;;;2217856;66;2118;-26
2023/05/16 13:14:43;;;;;;;;;;;;;;;;;;2219318;66;3249;-26
2023/05/16 13:17:14;;;;;;;;;;;;;;;;;;2219426;66;3112;-26
2023/05/16 13:19:44;;;;;;;;;;;;;;;;;;2219599;66;2741;-26
2023/05/16 13:22:14;;;;;;;;;;;;;;;;;;2216407;66;2692;-26
2023/05/16 13:24:44;;;;;;;;;;;;;;;;;;2204402;66;2860;-26
2023/05/16 13:27:16;;;;;;;;;;;;;;;;;;2218792;66;2132;-26
2023/05/16 13:29:46;;;;;;;;;;;;;;;;;;2219176;58;2709;-26
2023/05/16 13:32:19;;;;;;;;;;;;;;;;;;2202040;66;3301;-26
2023/05/16 13:34:50;;;;;;;;;;;;;;;;;;2203959;66;2551;-26
2023/05/16 13:37:23;;;;;;;;;;;;;;;;;;2218835;59;3715;-26
2023/05/16 13:39:56;;;;;;;;;;;;;;;;;;2217514;58;3023;-26
2023/05/16 13:42:26;;;;;;;;;;;;;;;;;;2203424;66;3315;-26
2023/05/16 13:44:56;;;;;;;;;;;;;;;;;;2220701;66;3614;-26
2023/05/16 13:47:26;;;;;;;;;;;;;;;;;;2219266;66;2809;-26
2023/05/16 13:49:57;;;;;;;;;;;;;;;;;;2216736;59;3760;-26
2023/05/16 13:52:27;;;;;;;;;;;;;;;;;;2219115;58;2794;-26
2023/05/16 13:54:57;;;;;;;;;;;;;;;;;;2220825;58;2938;-26
2023/05/16 13:57:27;;;;;;;;;;;;;;;;;;2219892;58;2674;-27
2023/05/16 13:59:58;;;;;;;;;;;;;;;;;;2219757;58;2144;-27
2023/05/16 14:02:28;;;;;;;;;;;;;;;;;;2220474;58;2934;-27
2023/05/16 14:04:58;;;;;;;;;;;;;;;;;;2219645;58;2655;-26
2023/05/16 14:07:28;;;;;;;;;;;;;;;;;;2219910;66;3149;-27
2023/05/16 14:10:02;;;;;;;;;;;;;;;;;;2219328;58;2061;-27
2023/05/16 14:12:33;;;;;;;;;;;;;;;;;;2203030;66;2917;-27
2023/05/16 14:15:03;;;;;;;;;;;;;;;;;;2220007;66;1761;-27
2023/05/16 14:17:34;;;;;;;;;;;;;;;;;;2205035;66;3117;-27
2023/05/16 14:20:08;;;;;;;;;;;;;;;;;;2203973;66;2964;-27
2023/05/16 14:22:39;;;;;;;;;;;;;;;;;;2219794;66;2500;-27
2023/05/16 14:25:09;;;;;;;;;;;;;;;;;;2219055;58;3424;-26
2023/05/16 14:27:40;;;;;;;;;;;;;;;;;;2217979;66;3362;-26
2023/05/16 14:30:10;;;;;;;;;;;;;;;;;;2218756;66;2840;-27
2023/05/16 14:32:41;;;;;;;;;;;;;;;;;;2219761;66;2932;-27
2023/05/16 14:35:11;;;;;;;;;;;;;;;;;;2203525;66;2656;-26
2023/05/16 14:37:41;;;;;;;;;;;;;;;;;;2215992;58;3070;-26
2023/05/16 14:40:11;;;;;;;;;;;;;;;;;;2203364;66;2224;-27
2023/05/16 14:42:42;;;;;;;;;;;;;;;;;;2218531;66;2870;-27
2023/05/16 14:45:12;;;;;;;;;;;;;;;;;;2217009;66;2862;-27
2023/05/16 14:47:42;;;;;;;;;;;;;;;;;;2216985;66;2912;-27
2023/05/16 14:50:12;;;;;;;;;;;;;;;;;;2216915;58;2560;-26
2023/05/16 14:52:43;;;;;;;;;;;;;;;;;;2218952;58;3113;-26
2023/05/16 14:55:14;;;;;;;;;;;;;;;;;;2216618;58;2764;-26
2023/05/16 14:57:44;;;;;;;;;;;;;;;;;;2219416;66;3234;-26
2023/05/16 15:00:16;;;;;;;;;;;;;;;;;;2219517;58;2688;-27
2023/05/16 15:02:46;;;;;;;;;;;;;;;;;;2218042;58;4446;-27
2023/05/16 15:05:16;;;;;;;;;;;;;;;;;;2219484;58;2715;-27
2023/05/16 15:07:46;;;;;;;;;;;;;;;;;;2219873;66;3028;-27
2023/05/16 15:10:17;;;;;;;;;;;;;;;;;;2203267;59;2518;-27
2023/05/16 15:12:47;;;;;;;;;;;;;;;;;;2220256;66;2931;-27
2023/05/16 15:15:17;;;;;;;;;;;;;;;;;;2219859;66;2849;-27
2023/05/16 15:17:47;;;;;;;;;;;;;;;;;;2200587;66;2548;-27
2023/05/16 15:20:18;;;;;;;;;;;;;;;;;;2203456;66;2926;-27
2023/05/16 15:22:48;;;;;;;;;;;;;;;;;;2219102;66;2956;-27
2023/05/16 15:25:18;;;;;;;;;;;;;;;;;;2218639;66;2695;-27
2023/05/16 15:27:48;;;;;;;;;;;;;;;;;;2205085;66;2936;-26
2023/05/16 15:30:18;;;;;;;;;;;;;;;;;;2219571;66;1321;-26
2023/05/16 15:32:49;;;;;;;;;;;;;;;;;;2203899;66;2551;-26
2023/05/16 15:35:19;;;;;;;;;;;;;;;;;;2204297;58;3203;-26
2023/05/16 15:37:51;;;;;;;;;;;;;;;;;;2203378;58;2553;-26
2023/05/16 15:40:22;;;;;;;;;;;;;;;;;;2219300;66;2480;-26
2023/05/16 15:42:52;;;;;;;;;;;;;;;;;;2219437;66;2860;-26
2023/05/16 15:45:25;;;;;;;;;;;;;;;;;;2203076;66;2544;-26
2023/05/16 15:47:55;;;;;;;;;;;;;;;;;;2204019;59;3100;-26
2023/05/16 15:50:26;;;;;;;;;;;;;;;;;;2218715;58;2137;-26
2023/05/16 15:52:57;;;;;;;;;;;;;;;;;;2218881;58;3446;-26
2023/05/16 15:55:33;;;;;;;;;;;;;;;;;;2218602;58;2236;-26
2023/05/16 15:58:06;;;;;;;;;;;;;;;;;;2216032;58;3273;-26
2023/05/16 16:00:36;;;;;;;;;;;;;;;;;;2218547;59;2778;-26
2023/05/16 16:03:08;;;;;;;;;;;;;;;;;;2218630;58;2014;-26
2023/05/16 16:05:38;;;;;;;;;;;;;;;;;;2214046;66;2150;-26
2023/05/16 16:08:08;;;;;;;;;;;;;;;;;;2219803;66;2935;-26
2023/05/16 16:10:39;;;;;;;;;;;;;;;;;;2204951;66;3288;-26
2023/05/16 16:13:09;;;;;;;;;;;;;;;;;;2220386;66;2813;-26
2023/05/16 16:15:40;;;;;;;;;;;;;;;;;;2203113;66;3113;-26
2023/05/16 16:18:12;;;;;;;;;;;;;;;;;;2218805;66;2693;-26
2023/05/16 16:20:43;;;;;;;;;;;;;;;;;;2220547;58;2961;-26
2023/05/16 16:23:13;;;;;;;;;;;;;;;;;;2220770;66;2796;-26
2023/05/16 16:25:43;;;;;;;;;;;;;;;;;;2220053;66;2287;-26
2023/05/16 16:28:13;;;;;;;;;;;;;;;;;;2219357;66;2488;-26
2023/05/16 16:30:46;;;;;;;;;;;;;;;;;;2220879;66;3236;-26
2023/05/16 16:33:16;;;;;;;;;;;;;;;;;;2220486;66;2901;-25
2023/05/16 16:35:46;;;;;;;;;;;;;;;;;;2221342;58;2456;-26
2023/05/16 16:38:17;;;;;;;;;;;;;;;;;;2220830;58;2766;-26
2023/05/16 16:40:47;;;;;;;;;;;;;;;;;;2219478;66;3335;-26
2023/05/16 16:43:17;;;;;;;;;;;;;;;;;;2204838;66;2275;-26
2023/05/16 16:45:48;;;;;;;;;;;;;;;;;;2220029;66;2797;-25
2023/05/16 16:48:18;;;;;;;;;;;;;;;;;;2204461;59;2684;-25
2023/05/16 16:50:48;;;;;;;;;;;;;;;;;;2219980;58;2791;-25
2023/05/16 16:53:19;;;;;;;;;;;;;;;;;;2219983;66;3548;-25
2023/05/16 16:55:49;;;;;;;;;;;;;;;;;;2203927;59;3365;-25
2023/05/16 16:58:19;;;;;;;;;;;;;;;;;;2203390;59;2114;-25
2023/05/16 17:00:51;;;;;;;;;;;;;;;;;;2220253;58;4100;-25
2023/05/16 17:03:22;;;;;;;;;;;;;;;;;;2220954;58;2793;-25
2023/05/16 17:05:52;;;;;;;;;;;;;;;;;;2220352;66;3322;-25
2023/05/16 17:08:25;;;;;;;;;;;;;;;;;;2220718;66;2201;-25
2023/05/16 17:10:56;;;;;;;;;;;;;;;;;;2221159;66;2516;-25
2023/05/16 17:13:32;;;;;;;;;;;;;;;;;;2221102;66;3164;-25
2023/05/16 17:16:02;;;;;;;;;;;;;;;;;;2220894;66;2998;-25
2023/05/16 17:18:36;;;;;;;;;;;;;;;;;;2221406;66;3169;-25
2023/05/16 17:21:08;;;;;;;;;;;;;;;;;;2220281;66;2823;-25
2023/05/16 17:23:38;;;;;;;;;;;;;;;;;;2221167;66;2508;-25
2023/05/16 17:26:08;;;;;;;;;;;;;;;;;;2204780;66;2802;-25
2023/05/16 17:28:39;;;;;;;;;;;;;;;;;;2220392;66;2334;-25
2023/05/16 17:31:09;;;;;;;;;;;;;;;;;;2201682;66;3394;-25
2023/05/16 17:33:39;;;;;;;;;;;;;;;;;;2220323;66;2602;-25